Time;durP1;ratioP1;P1;durP2;ratioP2;P2;SDS_P1;SDS_P2;PMS_P1;PMS_P2;Temp;Humidity;BMP_temperature;BMP_pressure;BME280_temperature;BME280_humidity;BME280_pressure;Samples;Min_cycle;Max_cycle;Signal;HPM_P1;HPM_P2
2022/05/21 00:01:39;;;;;;;6.23;3.67;;;;;;;20.06;100.00;96465.63;5030615;28;102962;-57
2022/05/21 00:04:06;;;;;;;7.00;3.20;;;;;;;19.95;100.00;96470.47;5030115;28;102048;-56
2022/05/21 00:06:33;;;;;;;7.50;3.30;;;;;;;20.06;100.00;96489.94;5032037;28;102974;-55
2022/05/21 00:09:00;;;;;;;7.60;3.63;;;;;;;20.10;100.00;96497.13;5030773;27;102954;-56
2022/05/21 00:11:27;;;;;;;6.97;3.67;;;;;;;20.00;100.00;96520.88;5031256;27;102081;-57
2022/05/21 00:13:56;;;;;;;9.80;3.77;;;;;;;20.47;100.00;96531.84;5030196;28;105718;-56
2022/05/21 00:16:24;;;;;;;8.27;4.00;;;;;;;20.99;100.00;96541.06;5034252;28;102650;-56
2022/05/21 00:18:52;;;;;;;8.13;3.53;;;;;;;20.59;100.00;96545.59;5031344;27;102359;-56
2022/05/21 00:21:20;;;;;;;7.43;4.50;;;;;;;20.51;100.00;96548.25;5029257;28;104107;-55
2022/05/21 00:23:47;;;;;;;7.93;4.13;;;;;;;20.36;100.00;96570.22;5029810;28;101916;-56
2022/05/21 00:26:16;;;;;;;7.67;4.87;;;;;;;20.43;100.00;96567.91;5029414;28;104847;-56
2022/05/21 00:28:46;;;;;;;7.20;4.60;;;;;;;20.43;100.00;96590.31;5029377;28;105294;-56
2022/05/21 00:31:16;;;;;;;8.13;4.67;;;;;;;20.40;100.00;96611.75;5031197;28;101716;-56
2022/05/21 00:33:45;;;;;;;8.50;5.53;;;;;;;20.39;100.00;96596.63;5029837;28;105497;-56
2022/05/21 00:36:14;;;;;;;14.50;4.70;;;;;;;20.39;100.00;96577.72;5028940;28;105910;-56
2022/05/21 00:38:42;;;;;;;11.07;5.33;;;;;;;20.38;100.00;96589.66;5034440;27;102103;-54
2022/05/21 00:41:12;;;;;;;9.80;5.47;;;;;;;20.35;100.00;96607.28;5028871;28;103750;-56
2022/05/21 00:43:45;;;;;;;7.83;5.20;;;;;;;20.20;100.00;96642.72;5029451;28;102411;-56
2022/05/21 00:46:16;;;;;;;8.23;5.60;;;;;;;20.12;100.00;96653.44;5029367;28;104860;-57
2022/05/21 00:48:44;;;;;;;8.10;5.50;;;;;;;20.04;100.00;96664.91;5028965;27;105114;-57
2022/05/21 00:51:20;;;;;;;7.13;5.17;;;;;;;20.05;100.00;96671.94;5029116;28;101952;-56
2022/05/21 00:53:48;;;;;;;9.87;5.63;;;;;;;19.99;100.00;96675.84;5031010;27;102281;-56
2022/05/21 00:56:16;;;;;;;8.87;5.60;;;;;;;19.98;100.00;96679.63;5029721;27;103371;-56
2022/05/21 01:01:33;;;;;;;8.60;6.00;;;;;;;19.90;100.00;96696.56;5033545;27;102613;-56
2022/05/21 01:04:00;;;;;;;11.30;5.70;;;;;;;19.87;100.00;96699.84;5030694;27;102247;-57
2022/05/21 01:06:29;;;;;;;10.33;5.80;;;;;;;19.93;100.00;96682.44;5029175;28;105179;-56
2022/05/21 01:08:57;;;;;;;9.60;5.50;;;;;;;19.95;100.00;96650.56;5028608;28;105491;-56
2022/05/21 01:11:24;;;;;;;10.53;5.83;;;;;;;19.94;100.00;96670.56;5029021;28;102000;-56
2022/05/21 01:13:53;;;;;;;8.93;5.80;;;;;;;19.92;100.00;96687.06;5030576;28;102825;-56
2022/05/21 01:16:21;;;;;;;8.73;5.90;;;;;;;19.83;100.00;96696.94;5028187;28;105346;-56
2022/05/21 01:18:48;;;;;;;10.13;5.87;;;;;;;19.71;100.00;96693.16;5030503;27;101882;-56
2022/05/21 01:21:15;;;;;;;9.47;6.30;;;;;;;19.64;100.00;96690.06;5033176;28;102303;-56
2022/05/21 01:23:43;;;;;;;6.57;5.00;;;;;;;19.70;100.00;96691.56;5030233;28;101698;-56
2022/05/21 01:26:16;;;;;;;9.10;5.20;;;;;;;19.73;100.00;96680.97;5030629;28;102386;-56
2022/05/21 01:28:44;;;;;;;8.83;5.43;;;;;;;19.78;100.00;96680.84;5029769;27;102781;-56
2022/05/21 01:31:12;;;;;;;5.00;4.60;;;;;;;19.80;100.00;96684.06;5030244;27;101766;-55
2022/05/21 01:33:41;;;;;;;6.10;4.30;;;;;;;19.78;100.00;96674.69;5030254;28;101722;-53
2022/05/21 01:36:09;;;;;;;9.17;4.70;;;;;;;19.75;100.00;96677.97;5029622;28;103029;-55
2022/05/21 01:38:38;;;;;;;5.97;4.53;;;;;;;19.76;100.00;96680.38;5029686;27;101820;-56
2022/05/21 01:41:09;;;;;;;5.40;4.40;;;;;;;19.75;100.00;96673.38;5030227;28;102779;-54
2022/05/21 01:46:21;;;;;;;8.70;4.40;;;;;;;19.75;100.00;96667.16;5030021;27;102863;-55
2022/05/21 01:48:48;;;;;;;7.93;4.77;;;;;;;19.78;100.00;96669.28;5027898;28;103724;-55
2022/05/21 01:51:16;;;;;;;6.23;4.40;;;;;;;19.74;100.00;96674.50;5028538;28;102461;-55
2022/05/21 01:53:44;;;;;;;6.00;4.77;;;;;;;19.70;100.00;96678.06;5028526;28;103684;-56
2022/05/21 01:56:13;;;;;;;6.70;5.30;;;;;;;19.69;100.00;96679.19;5027788;28;105396;-56
2022/05/21 01:58:41;;;;;;;6.73;4.73;;;;;;;19.70;100.00;96678.06;5028926;28;102491;-55
2022/05/21 02:01:09;;;;;;;7.07;5.13;;;;;;;19.62;100.00;96708.47;5027861;28;103715;-56
2022/05/21 02:03:37;;;;;;;6.97;4.43;;;;;;;19.54;100.00;96728.03;5027723;28;105542;-56
2022/05/21 02:06:06;;;;;;;5.87;4.20;;;;;;;19.46;100.00;96747.63;5031954;28;102100;-55
2022/05/21 02:08:33;;;;;;;3.47;3.17;;;;;;;19.18;100.00;96759.41;5027860;28;105472;-55
2022/05/21 02:11:00;;;;;;;6.67;3.57;;;;;;;18.94;100.00;96774.88;5028061;28;102565;-56
2022/05/21 02:13:32;;;;;;;4.93;4.07;;;;;;;18.54;100.00;96768.19;5028302;28;105495;-56
2022/05/21 02:15:59;;;;;;;6.20;3.53;;;;;;;18.40;100.00;96761.94;5027844;28;105186;-55
2022/05/21 02:18:26;;;;;;;6.67;4.30;;;;;;;18.18;100.00;96755.47;5028207;28;101883;-56
2022/05/21 02:20:54;;;;;;;7.53;4.20;;;;;;;17.95;100.00;96761.69;5028015;28;105819;-56
2022/05/21 02:23:22;;;;;;;7.83;4.53;;;;;;;17.73;100.00;96767.63;5027630;28;105354;-56
2022/05/21 02:25:49;;;;;;;5.73;4.40;;;;;;;17.59;100.00;96768.56;5027666;28;101906;-57
2022/05/21 02:28:17;;;;;;;5.83;4.40;;;;;;;17.48;100.00;96788.56;5031076;28;105013;-57
2022/05/21 02:30:45;;;;;;;7.83;5.10;;;;;;;17.43;100.00;96791.34;5028090;28;101784;-56
2022/05/21 02:33:12;;;;;;;6.70;4.80;;;;;;;17.34;100.00;96795.69;5028083;28;105896;-56
2022/05/21 02:35:40;;;;;;;6.10;4.43;;;;;;;17.25;100.00;96781.22;5027442;28;103909;-56
2022/05/21 02:40:51;;;;;;;8.03;4.90;;;;;;;17.29;100.00;96776.91;5027873;28;104153;-56
2022/05/21 02:43:19;;;;;;;5.40;4.53;;;;;;;17.31;100.00;96774.72;5027509;28;105401;-57
2022/05/21 02:45:48;;;;;;;6.37;4.67;;;;;;;17.28;100.00;96786.84;5027843;28;101860;-56
2022/05/21 02:48:15;;;;;;;6.43;5.37;;;;;;;17.33;100.00;96796.78;5027824;28;105231;-56
2022/05/21 02:50:42;;;;;;;6.53;5.37;;;;;;;17.35;100.00;96792.72;5030551;28;105198;-56
2022/05/21 02:53:16;;;;;;;5.80;5.23;;;;;;;17.32;100.00;96782.50;5027849;28;105089;-56
2022/05/21 02:55:44;;;;;;;7.83;5.17;;;;;;;17.36;100.00;96767.44;5027019;28;104049;-57
2022/05/21 02:58:11;;;;;;;6.07;5.27;;;;;;;17.21;100.00;96770.25;5027425;28;101977;-56
2022/05/21 03:00:38;;;;;;;9.53;5.57;;;;;;;17.23;100.00;96767.28;5027451;28;104769;-57
2022/05/21 03:03:06;;;;;;;7.60;5.60;;;;;;;17.09;100.00;96769.00;5026951;28;104895;-57
2022/05/21 03:05:33;;;;;;;8.07;6.10;;;;;;;17.15;100.00;96767.88;5027705;28;101895;-56
2022/05/21 03:10:20;;;;;;;6.03;5.43;;;;;;;17.22;100.00;96771.06;5027784;28;105566;-57
2022/05/21 03:10:51;;;;;;;7.47;6.07;;;;;;;17.14;100.00;96771.66;5026272;28;104334;-56
2022/05/21 03:13:18;;;;;;;7.97;6.20;;;;;;;17.12;100.00;96771.94;5034324;28;101826;-56
2022/05/21 03:15:45;;;;;;;7.97;5.80;;;;;;;17.09;100.00;96793.19;5030242;28;105281;-56
2022/05/21 03:18:15;;;;;;;6.67;5.60;;;;;;;16.98;100.00;96795.19;5030945;28;101933;-56
2022/05/21 03:20:43;;;;;;;8.63;6.03;;;;;;;16.94;100.00;96793.34;5032241;28;102559;-56
2022/05/21 03:23:10;;;;;;;9.03;6.40;;;;;;;17.03;100.00;96807.75;5030343;28;105596;-53
2022/05/21 03:25:38;;;;;;;7.50;6.03;;;;;;;16.99;100.00;96804.03;5031794;28;101844;-55
2022/05/21 03:28:06;;;;;;;7.37;6.57;;;;;;;16.93;100.00;96805.13;5030910;28;103816;-56
2022/05/21 03:30:35;;;;;;;6.40;5.77;;;;;;;16.98;100.00;96792.50;5029938;28;105186;-56
2022/05/21 03:33:02;;;;;;;8.20;6.23;;;;;;;17.03;100.00;96794.31;5035336;28;101809;-55
2022/05/21 03:35:32;;;;;;;7.27;6.43;;;;;;;16.90;100.00;96800.34;5030180;28;104657;-56
2022/05/21 03:38:00;;;;;;;7.30;6.60;;;;;;;16.89;100.00;96812.19;5030377;28;102152;-55
2022/05/21 03:40:30;;;;;;;8.70;6.53;;;;;;;16.84;100.00;96812.22;5031892;27;102278;-55
2022/05/21 03:42:58;;;;;;;6.83;6.13;;;;;;;16.85;100.00;96817.28;5030035;28;105856;-56
2022/05/21 03:45:26;;;;;;;7.73;6.90;;;;;;;16.77;100.00;96817.88;5030506;28;102041;-56
2022/05/21 03:47:53;;;;;;;6.97;6.37;;;;;;;16.68;100.00;96814.16;5030223;28;105169;-56
2022/05/21 03:50:23;;;;;;;6.87;6.27;;;;;;;16.66;100.00;96810.16;5029858;28;105293;-56
2022/05/21 03:52:51;;;;;;;6.90;6.20;;;;;;;16.68;100.00;96816.06;5031591;28;101876;-56
2022/05/21 03:55:18;;;;;;;9.30;6.80;;;;;;;16.72;100.00;96817.91;5032951;28;105097;-56
2022/05/21 03:57:45;;;;;;;7.30;6.70;;;;;;;16.76;100.00;96820.84;5030295;28;102552;-56
2022/05/21 04:00:17;;;;;;;8.17;7.20;;;;;;;16.74;100.00;96821.13;5029438;28;103663;-56
2022/05/21 04:02:43;;;;;;;8.47;6.37;;;;;;;16.67;100.00;96825.22;5029611;28;105395;-56
2022/05/21 04:05:12;;;;;;;9.40;7.30;;;;;;;16.71;100.00;96823.56;5030203;28;101921;-55
2022/05/21 04:07:40;;;;;;;8.17;6.87;;;;;;;16.77;100.00;96828.63;5030247;28;103498;-55
2022/05/21 04:10:12;;;;;;;7.90;7.03;;;;;;;16.72;100.00;96830.53;5030606;27;103038;-56
2022/05/21 04:12:38;;;;;;;7.63;6.83;;;;;;;16.77;100.00;96828.63;5030009;28;102087;-56
2022/05/21 04:15:07;;;;;;;8.60;6.37;;;;;;;16.80;100.00;96827.28;5030081;28;105433;-56
2022/05/21 04:17:34;;;;;;;7.03;6.33;;;;;;;16.86;100.00;96820.78;5034340;28;102901;-56
2022/05/21 04:20:01;;;;;;;8.30;6.50;;;;;;;16.93;100.00;96826.63;5029653;28;103696;-56
2022/05/21 04:22:27;;;;;;;6.73;6.03;;;;;;;16.92;100.00;96831.22;5028878;27;105478;-56
2022/05/21 04:24:55;;;;;;;7.33;6.13;;;;;;;16.89;100.00;96842.50;5029603;28;101875;-56
2022/05/21 04:27:23;;;;;;;6.90;6.17;;;;;;;16.90;100.00;96848.69;5029873;28;105129;-56
2022/05/21 04:29:51;;;;;;;7.67;6.07;;;;;;;16.92;100.00;96855.41;5028887;28;103785;-56
2022/05/21 04:32:19;;;;;;;8.27;5.63;;;;;;;16.94;100.00;96857.81;5029532;28;102076;-56
2022/05/21 04:34:46;;;;;;;8.27;5.57;;;;;;;16.93;100.00;96857.00;5029550;28;105153;-56
2022/05/21 04:37:13;;;;;;;7.77;6.23;;;;;;;17.04;100.00;96855.03;5028938;28;105262;-56
2022/05/21 04:39:40;;;;;;;5.97;4.60;;;;;;;17.00;100.00;96852.13;5034434;28;101846;-57
2022/05/21 04:42:07;;;;;;;6.37;4.87;;;;;;;16.99;100.00;96857.75;5030060;27;102731;-56
2022/05/21 04:44:35;;;;;;;5.60;5.10;;;;;;;16.96;100.00;96855.66;5030915;27;101810;-56
2022/05/21 04:47:03;;;;;;;6.10;5.07;;;;;;;17.00;100.00;96859.38;5031186;28;102648;-56
2022/05/21 04:49:31;;;;;;;6.23;4.90;;;;;;;16.95;100.00;96845.97;5030033;28;104253;-55
2022/05/21 04:52:02;;;;;;;4.70;4.30;;;;;;;16.92;100.00;96852.72;5030585;27;101859;-56
2022/05/21 04:54:29;;;;;;;7.50;4.97;;;;;;;16.91;100.00;96851.13;5030420;28;103066;-56
2022/05/21 04:56:56;;;;;;;6.37;4.70;;;;;;;16.98;100.00;96853.47;5030344;28;103102;-56
2022/05/21 04:59:23;;;;;;;5.53;4.50;;;;;;;16.89;100.00;96852.47;5028654;28;101871;-56
2022/05/21 05:01:51;;;;;;;6.50;4.57;;;;;;;16.95;100.00;96854.03;5033471;28;102916;-57
2022/05/21 05:04:18;;;;;;;5.43;4.43;;;;;;;17.06;100.00;96856.38;5028649;28;101917;-56
2022/05/21 05:06:45;;;;;;;5.23;4.50;;;;;;;17.05;100.00;96856.66;5028213;28;103673;-57
2022/05/21 05:09:12;;;;;;;4.80;4.30;;;;;;;16.93;100.00;96864.25;5028021;28;103825;-55
2022/05/21 05:11:39;;;;;;;4.40;4.00;;;;;;;16.97;100.00;96868.00;5028425;28;102228;-55
2022/05/21 05:14:06;;;;;;;4.77;4.37;;;;;;;17.02;100.00;96862.59;5028429;28;105974;-55
2022/05/21 05:16:33;;;;;;;5.23;4.63;;;;;;;17.08;100.00;96861.47;5028592;28;105469;-56
2022/05/21 05:19:01;;;;;;;4.43;3.93;;;;;;;17.05;100.00;96864.72;5028852;28;101897;-56
2022/05/21 05:21:28;;;;;;;5.87;4.00;;;;;;;17.18;100.00;96861.41;5028506;28;105538;-56
2022/05/21 05:23:56;;;;;;;4.67;4.20;;;;;;;17.30;100.00;96868.03;5031644;28;101962;-56
2022/05/21 05:26:23;;;;;;;5.00;4.50;;;;;;;17.43;100.00;96878.16;5028767;28;104062;-56
2022/05/21 05:28:50;;;;;;;5.73;4.40;;;;;;;17.47;100.00;96873.84;5028201;28;105783;-56
2022/05/21 05:31:17;;;;;;;5.87;4.13;;;;;;;17.43;100.00;96867.41;5028815;28;101829;-56
2022/05/21 05:33:44;;;;;;;4.00;3.70;;;;;;;17.37;100.00;96871.19;5028146;27;105216;-56
2022/05/21 05:36:13;;;;;;;4.20;3.60;;;;;;;17.34;100.00;96871.75;5029179;28;102499;-57
2022/05/21 05:38:41;;;;;;;3.73;3.33;;;;;;;17.34;100.00;96879.03;5028597;28;102164;-56
2022/05/21 05:41:09;;;;;;;4.23;3.80;;;;;;;17.38;100.00;96877.38;5028805;28;104065;-54
2022/05/21 05:43:36;;;;;;;3.73;3.43;;;;;;;17.38;100.00;96874.69;5031487;28;104176;-55
2022/05/21 05:46:04;;;;;;;3.50;3.20;;;;;;;17.37;100.00;96870.38;5028309;28;103580;-55
2022/05/21 05:48:31;;;;;;;4.17;3.77;;;;;;;17.40;100.00;96870.69;5028005;28;105405;-58
2022/05/21 05:51:02;;;;;;;4.23;3.70;;;;;;;17.40;100.00;96864.47;5028249;28;101937;-58
2022/05/21 05:53:31;;;;;;;5.13;3.53;;;;;;;17.35;100.00;96876.06;5028511;28;103705;-58
2022/05/21 05:55:58;;;;;;;4.33;3.80;;;;;;;17.42;100.00;96875.75;5027955;28;105577;-58
2022/05/21 06:01:10;;;;;;;4.80;3.93;;;;;;;17.44;100.00;96868.22;5027638;28;105140;-58
2022/05/21 06:03:38;;;;;;;3.97;3.13;;;;;;;17.46;100.00;96868.72;5027540;28;105377;-58
2022/05/21 06:06:06;;;;;;;5.30;3.60;;;;;;;17.49;100.00;96868.97;5033630;27;102085;-58
2022/05/21 06:08:35;;;;;;;6.00;4.20;;;;;;;17.73;100.00;96869.03;5028077;28;104113;-58
2022/05/21 06:11:02;;;;;;;3.60;3.30;;;;;;;17.82;100.00;96872.72;5028179;28;101971;-58
2022/05/21 06:13:29;;;;;;;3.70;3.40;;;;;;;17.82;100.00;96870.81;5028223;28;103845;-58
2022/05/21 06:15:57;;;;;;;5.43;3.70;;;;;;;17.82;100.00;96870.81;5027724;28;105518;-58
2022/05/21 06:18:24;;;;;;;4.00;3.60;;;;;;;17.83;100.00;96874.31;5028205;28;102126;-58
2022/05/21 06:20:51;;;;;;;4.33;3.53;;;;;;;17.93;100.00;96876.91;5028131;28;103674;-58
2022/05/21 06:23:19;;;;;;;4.20;3.70;;;;;;;18.00;100.00;96886.25;5027508;28;105406;-58
2022/05/21 06:25:48;;;;;;;3.60;3.40;;;;;;;18.24;100.00;96873.59;5027668;28;102457;-58
2022/05/21 06:28:15;;;;;;;4.10;3.70;;;;;;;18.31;100.00;96871.34;5030730;28;105350;-58
2022/05/21 06:30:44;;;;;;;4.23;3.57;;;;;;;18.61;100.00;96872.91;5028188;28;101785;-58
2022/05/21 06:33:14;;;;;;;4.20;3.80;;;;;;;18.69;100.00;96872.28;5027891;28;103580;-59
2022/05/21 06:35:41;;;;;;;6.37;3.60;;;;;;;18.66;100.00;96883.63;5026702;28;103907;-62
2022/05/21 06:38:08;;;;;;;4.13;3.40;;;;;;;18.41;100.00;96875.84;5027880;28;102042;-59
2022/05/21 06:40:35;;;;;;;5.03;3.50;;;;;;;18.30;100.00;96868.94;5027966;28;104340;-59
2022/05/21 06:43:03;;;;;;;3.70;3.40;;;;;;;18.43;100.00;96862.91;5027284;28;106438;-62
2022/05/21 06:45:32;;;;;;;4.37;3.20;;;;;;;18.59;100.00;96867.03;5028128;27;101937;-60
2022/05/21 06:48:00;;;;;;;3.73;3.33;;;;;;;18.66;100.00;96880.94;5031387;28;105158;-61
2022/05/21 06:50:28;;;;;;;3.73;3.37;;;;;;;18.60;100.00;96876.69;5034152;28;105511;-61
2022/05/21 06:52:55;;;;;;;5.17;3.00;;;;;;;18.51;100.00;96876.53;5032640;28;102758;-62
2022/05/21 06:55:22;;;;;;;2.70;2.50;;;;;;;18.58;100.00;96876.97;5029885;28;106563;-60
2022/05/21 06:57:50;;;;;;;3.00;2.70;;;;;;;18.60;100.00;96882.09;5030295;28;101862;-62
2022/05/21 07:00:21;;;;;;;4.10;3.00;;;;;;;18.58;100.00;96868.91;5029783;28;106001;-60
2022/05/21 07:02:48;;;;;;;3.63;2.80;;;;;;;18.71;100.00;96870.91;5044653;27;105172;-61
2022/05/21 07:08:00;;;;;;;2.77;2.50;;;;;;;19.46;100.00;96861.69;5058457;27;106051;-61
2022/05/21 07:10:29;;;;;;;3.50;3.03;;;;;;;19.52;100.00;96865.13;5030378;28;103913;-61
2022/05/21 07:12:56;;;;;;;4.00;2.70;;;;;;;19.66;100.00;96874.03;5034494;28;101837;-60
2022/05/21 07:15:25;;;;;;;3.10;2.60;;;;;;;19.89;100.00;96865.81;5029845;28;103985;-62
2022/05/21 07:17:59;;;;;;;2.60;2.40;;;;;;;19.67;100.00;96872.97;5030839;28;102146;-62
2022/05/21 07:20:26;;;;;;;5.20;2.30;;;;;;;19.46;100.00;96874.41;5030743;28;105122;-63
2022/05/21 07:22:53;;;;;;;3.17;2.40;;;;;;;19.28;100.00;96883.28;5030346;28;104980;-62
2022/05/21 07:25:23;;;;;;;3.10;2.13;;;;;;;19.71;100.00;96869.38;5031294;28;102575;-62
2022/05/21 07:27:50;;;;;;;2.63;2.40;;;;;;;19.93;100.00;96879.50;5031579;27;102293;-62
2022/05/21 07:30:18;;;;;;;2.80;2.50;;;;;;;19.69;100.00;96870.75;5031635;28;103286;-62
2022/05/21 07:32:50;;;;;;;2.37;2.17;;;;;;;19.93;100.00;96874.91;5035345;28;101813;-62
2022/05/21 07:35:19;;;;;;;3.53;2.83;;;;;;;19.35;100.00;96879.13;5029761;28;103303;-62
2022/05/21 07:37:47;;;;;;;2.57;2.37;;;;;;;19.44;100.00;96879.25;5032196;27;102106;-62
2022/05/21 07:40:15;;;;;;;3.37;2.50;;;;;;;19.41;100.00;96879.88;5030617;28;103629;-62
2022/05/21 07:42:43;;;;;;;3.80;2.40;;;;;;;19.37;100.00;96879.66;5029651;28;104188;-62
2022/05/21 07:45:13;;;;;;;4.03;2.80;;;;;;;19.35;100.00;96879.13;5030269;28;102045;-62
2022/05/21 07:47:40;;;;;;;2.73;2.53;;;;;;;19.44;100.00;96873.88;5030310;28;105001;-63
2022/05/21 07:50:11;;;;;;;4.50;2.70;;;;;;;19.75;100.00;96875.78;5029353;28;105635;-62
2022/05/21 07:52:38;;;;;;;3.13;2.83;;;;;;;19.75;100.00;96874.97;5030533;28;102064;-62
2022/05/21 07:55:06;;;;;;;4.27;2.93;;;;;;;19.85;100.00;96869.41;5033051;28;104788;-62
2022/05/21 07:57:33;;;;;;;3.40;2.87;;;;;;;20.15;100.00;96880.47;5029169;28;101911;-62
2022/05/21 08:00:00;;;;;;;4.63;2.50;;;;;;;20.50;100.00;96870.88;5029212;28;105297;-62
2022/05/21 08:02:27;;;;;;;3.10;2.80;;;;;;;19.85;100.00;96866.72;5029341;28;105435;-62
2022/05/21 08:04:54;;;;;;;4.00;2.80;;;;;;;19.81;100.00;96865.69;5029878;28;101924;-62
2022/05/21 08:07:23;;;;;;;2.97;2.70;;;;;;;19.92;100.00;96869.81;5029880;28;105168;-62
2022/05/21 08:09:50;;;;;;;2.80;2.60;;;;;;;19.87;100.00;96861.81;5030864;28;102601;-62
2022/05/21 08:12:18;;;;;;;3.37;2.70;;;;;;;20.11;100.00;96859.78;5029950;28;101917;-63
2022/05/21 08:14:46;;;;;;;2.73;2.53;;;;;;;20.09;100.00;96859.25;5030033;28;103578;-62
2022/05/21 08:17:13;;;;;;;4.03;2.80;;;;;;;20.20;100.00;96857.97;5032251;28;105782;-62
2022/05/21 08:19:43;;;;;;;2.37;2.17;;;;;;;20.60;100.00;96859.88;5030085;28;104734;-63
2022/05/21 08:27:40;;;;;;;3.73;2.30;;;;;;;20.76;100.00;96859.25;5029410;28;105443;-63
2022/05/21 08:30:09;;;;;;;2.67;2.30;;;;;;;21.02;100.00;96854.91;5029091;28;105318;-63
2022/05/21 08:32:36;;;;;;;2.77;2.30;;;;;;;21.11;100.00;96855.78;5029754;28;101966;-63
2022/05/21 08:35:04;;;;;;;2.47;2.27;;;;;;;21.09;100.00;96846.38;5029878;28;103621;-63
2022/05/21 08:37:33;;;;;;;3.07;2.07;;;;;;;21.16;100.00;96846.75;5062808;27;105413;-63
2022/05/21 08:40:02;;;;;;;2.27;2.10;;;;;;;21.08;100.00;96850.97;5033234;28;101910;-63
2022/05/21 08:42:34;;;;;;;3.20;2.20;;;;;;;20.74;100.00;96849.81;5030436;27;102475;-63
2022/05/21 08:45:16;;;;;;;2.30;2.10;;;;;;;20.79;100.00;96847.00;5031006;28;102140;-63
2022/05/21 08:47:46;;;;;;;1.80;1.70;;;;;;;21.03;100.00;96848.38;5030696;28;102426;-62
2022/05/21 08:50:16;;;;;;;2.20;1.97;;;;;;;20.77;100.00;96838.41;5028960;28;105530;-63
2022/05/21 08:52:49;;;;;;;1.70;1.60;;;;;;;20.99;100.00;96841.97;5029452;28;101991;-63
2022/05/21 08:55:21;;;;;;;2.13;1.87;;;;;;;21.55;100.00;96836.06;5030823;28;103028;-63
2022/05/21 08:57:51;;;;;;;2.87;1.80;;;;;;;21.72;100.00;96838.88;5030011;28;102695;-63
2022/05/21 09:00:22;;;;;;;1.60;1.50;;;;;;;21.69;100.00;96831.41;5029802;28;101896;-63
2022/05/21 09:02:49;;;;;;;1.60;1.50;;;;;;;21.79;100.00;96833.84;5033528;27;103987;-63
2022/05/21 09:05:18;;;;;;;1.57;1.40;;;;;;;21.65;100.00;96824.97;5029454;28;101957;-63
2022/05/21 09:07:57;;;;;;;1.63;1.40;;;;;;;21.27;100.00;96832.69;5029102;28;103480;-63
2022/05/21 09:10:43;;;;;;;2.77;1.87;;;;;;;21.40;100.00;96828.31;5028225;28;105523;-63
2022/05/21 09:13:16;;;;;;;1.80;1.67;;;;;;;21.63;100.00;96835.31;5028511;28;102561;-63
2022/05/21 09:18:31;;;;;;;3.23;1.40;;;;;;;21.37;100.00;96826.22;5026477;27;104131;-63
2022/05/21 09:21:01;;;;;;;1.73;1.60;;;;;;;21.27;100.00;96826.47;5028456;28;101890;-63
2022/05/21 09:23:50;;;;;;;2.20;1.90;;;;;;;21.52;100.00;96833.97;5028970;28;104936;-63
2022/05/21 09:26:22;;;;;;;3.37;2.17;;;;;;;21.87;100.00;96830.38;5031146;28;104361;-63
2022/05/21 09:28:49;;;;;;;2.30;1.70;;;;;;;21.64;100.00;96826.09;5028672;28;105209;-63
2022/05/21 09:31:29;;;;;;;3.27;2.27;;;;;;;22.24;100.00;96824.50;5028489;28;104272;-63
2022/05/21 09:34:13;;;;;;;3.20;1.97;;;;;;;22.01;100.00;96825.69;5028555;28;102450;-63
2022/05/21 09:36:40;;;;;;;3.20;2.07;;;;;;;22.24;100.00;96813.66;5028782;28;105141;-63
2022/05/21 09:39:07;;;;;;;2.57;2.17;;;;;;;21.94;100.00;96828.00;5027785;28;103890;-63
2022/05/21 09:41:37;;;;;;;2.73;1.93;;;;;;;21.49;100.00;96829.97;5028737;28;101998;-63
2022/05/21 09:47:17;;;;;;;2.87;2.00;;;;;;;21.39;100.00;96824.00;4993404;28;105980;-63
2022/05/21 09:50:00;;;;;;;2.00;1.90;;;;;;;21.55;100.00;96817.09;4990589;28;102783;-63
2022/05/21 09:52:30;;;;;;;2.70;1.80;;;;;;;21.38;100.00;96822.41;5009810;28;104264;-63
2022/05/21 09:54:57;;;;;;;2.13;1.93;;;;;;;21.37;100.00;96821.59;5062313;27;102327;-63
2022/05/21 09:57:31;;;;;;;2.10;1.87;;;;;;;21.41;100.00;96829.91;5027986;28;104895;-63
2022/05/21 10:00:16;;;;;;;2.00;1.80;;;;;;;21.47;100.00;96832.19;5025839;28;102783;-63
2022/05/21 10:02:46;;;;;;;3.50;2.30;;;;;;;21.27;100.00;96824.56;5027809;28;101872;-62
2022/05/21 10:05:16;;;;;;;4.30;2.17;;;;;;;21.65;100.00;96811.44;5029111;28;102506;-62
2022/05/21 10:13:30;;;;;;;5.93;2.00;;;;;;;22.08;100.00;96820.59;5027723;28;103141;-63
2022/05/21 10:16:04;;;;;;;2.37;1.73;;;;;;;22.28;100.00;96812.69;5028155;28;101874;-63
2022/05/21 10:18:36;;;;;;;4.03;2.40;;;;;;;22.00;100.00;96818.66;5016887;27;105264;-62
2022/05/21 10:21:10;;;;;;;2.10;2.00;;;;;;;22.22;100.00;96807.72;5025946;27;105270;-63
2022/05/21 10:23:44;;;;;;;2.70;2.20;;;;;;;22.28;100.00;96809.22;5016794;27;102293;-63
2022/05/21 10:26:31;;;;;;;4.03;2.50;;;;;;;22.24;100.00;96808.25;5031010;27;102343;-63
2022/05/21 10:29:20;;;;;;;2.90;2.10;;;;;;;22.33;100.00;96800.91;5031240;27;105813;-63
2022/05/21 10:31:57;;;;;;;2.53;2.33;;;;;;;21.92;100.00;96805.88;5020392;27;102279;-64
2022/05/21 10:34:44;;;;;;;4.70;2.30;;;;;;;22.65;100.00;96803.25;5026700;27;103852;-64
2022/05/21 10:37:32;;;;;;;2.47;2.17;;;;;;;22.59;100.00;96794.47;5025839;27;103731;-64
2022/05/21 10:40:14;;;;;;;3.17;2.60;;;;;;;22.57;100.00;96795.91;5029577;27;103258;-63
2022/05/21 10:42:58;;;;;;;3.23;2.27;;;;;;;22.87;100.00;96790.38;5027577;27;102661;-63
2022/05/21 10:45:33;;;;;;;2.57;2.37;;;;;;;22.22;100.00;96794.19;5030628;27;101931;-63
2022/05/21 10:48:24;;;;;;;2.83;2.13;;;;;;;22.23;100.00;96784.97;5032539;27;102672;-63
2022/05/21 10:50:57;;;;;;;3.33;2.50;;;;;;;22.25;100.00;96793.56;5028456;27;103887;-63
2022/05/21 10:53:47;;;;;;;3.00;2.37;;;;;;;21.86;100.00;96802.50;5025009;27;102028;-63
2022/05/21 10:56:29;;;;;;;4.03;2.30;;;;;;;21.95;100.00;96789.00;5033516;27;104305;-63
2022/05/21 10:59:10;;;;;;;2.83;2.60;;;;;;;21.85;100.00;96790.06;5032470;28;104343;-63
2022/05/21 11:01:47;;;;;;;2.40;2.10;;;;;;;21.98;100.00;96791.09;5028831;27;103513;-63
2022/05/21 11:04:27;;;;;;;2.40;2.20;;;;;;;22.38;100.00;96784.50;5031903;27;105316;-63
2022/05/21 11:07:17;;;;;;;2.73;2.50;;;;;;;22.40;100.00;96776.88;5028131;27;102434;-63
2022/05/21 11:09:51;;;;;;;2.87;2.57;;;;;;;22.60;100.00;96774.38;5037411;27;102864;-63
2022/05/21 11:12:24;;;;;;;2.43;2.20;;;;;;;22.58;100.00;96765.78;5030190;27;102489;-63
2022/05/21 11:14:58;;;;;;;2.40;2.20;;;;;;;22.52;100.00;96777.09;5035742;27;102309;-63
2022/05/21 11:17:34;;;;;;;2.80;2.60;;;;;;;22.29;100.00;96770.16;5044976;27;105591;-63
2022/05/21 11:20:05;;;;;;;2.47;2.27;;;;;;;22.96;100.00;96776.81;5010716;27;102619;-63
2022/05/21 11:22:38;;;;;;;2.97;2.67;;;;;;;23.11;100.00;96777.09;5035073;27;102013;-62
2022/05/21 11:25:14;;;;;;;6.20;2.30;;;;;;;23.61;100.00;96774.69;5032324;27;103152;-63
2022/05/21 11:27:50;;;;;;;3.80;2.20;;;;;;;23.61;100.00;96772.78;5011936;27;102684;-63
2022/05/21 11:30:20;;;;;;;3.00;2.80;;;;;;;23.08;100.00;96779.66;5009893;27;104828;-63
2022/05/21 11:38:30;;;;;;;3.40;2.60;;;;;;;23.92;100.00;96767.09;5025180;27;104853;-63
2022/05/21 11:43:57;;;;;;;3.07;2.40;;;;;;;24.04;100.00;96759.06;5012010;28;101706;-63
2022/05/21 11:46:36;;;;;;;3.17;2.57;;;;;;;23.03;100.00;96761.66;5046775;27;103841;-63
2022/05/21 11:49:48;;;;;;;3.43;2.13;;;;;;;23.67;100.00;96747.03;5044006;27;101743;-63
2022/05/21 11:53:01;;;;;;;2.90;2.60;;;;;;;23.76;98.34;96749.72;4975042;28;105698;-62
2022/05/21 11:55:32;;;;;;;3.03;2.30;;;;;;;23.57;100.00;96754.72;4945932;28;105671;-63
2022/05/21 11:58:01;;;;;;;2.97;2.50;;;;;;;23.79;100.00;96736.28;5001416;28;101885;-62
2022/05/21 12:00:52;;;;;;;3.20;2.50;;;;;;;24.33;95.77;96748.19;5009405;28;105150;-63
2022/05/21 12:03:24;;;;;;;2.73;2.53;;;;;;;24.51;95.72;96736.06;5010780;28;102772;-62
2022/05/21 12:06:23;;;;;;;2.23;2.07;;;;;;;25.16;94.82;96741.66;5010038;28;101888;-63
2022/05/21 12:08:51;;;;;;;2.23;2.07;;;;;;;25.53;89.63;96746.94;5022794;28;106140;-62
2022/05/21 12:11:51;;;;;;;3.17;1.80;;;;;;;23.80;81.01;96748.72;5043767;27;102259;-63